Seastreak Highlands — WDE4031 — position and weather

sailwx.info

Track history (hours):
 
Tides and Currents Weather Stations Pressure Air Temp Water Temp Dewpoint Dewpoint Depression Visibility Wind Speed Wind Dir Waves Ship Positions

Seastreak Highlands

Owner: Seastreak llc, atlantic highlands, NJ. More information available from US FCC via Universal Licensing System and Coast Guard Vessel Documentation Center.

Last reported at 2016-Dec-07 14:20 UTC. Time now 2016-Dec-07 16:26 UTC.
Position N 40°47' W 073°56'.

Length 44 m.

Type: High speed craft. MMSI: 367347670.

Date/timePositionNaut miles runAvg speedWind from/ knotsBaromVisibWave heightAir tempDewpointWater temp
2016-Dec-07 14:20N 40°47' W 073°56'911.7
2016-Dec-07 13:34N 40°39' W 074°02'7 7.0
2016-Dec-07 12:32N 40°31' W 074°02'7 7.5
2016-Dec-07 11:34N 40°39' W 074°02'13 1.2
2016-Dec-07 00:33N 40°25' W 074°00'1918.9
2016-Dec-06 23:33N 40°44' W 073°58'1918.9
2016-Dec-06 22:33N 40°25' W 074°02'1717.2
2016-Dec-06 21:34N 40°42' W 074°00'5 0.7
2016-Dec-06 14:19N 40°46' W 073°57'911.5
2016-Dec-06 13:34N 40°39' W 074°02'5 4.2
2016-Dec-06 12:29N 40°34' W 074°02'5 5.1
2016-Dec-06 11:34N 40°39' W 074°02'14 1.2
2016-Dec-06 00:33N 40°25' W 074°00'1918.8
2016-Dec-05 23:34N 40°44' W 073°58'1918.4
2016-Dec-05 22:32N 40°25' W 074°02'1717.5
2016-Dec-05 21:34N 40°42' W 074°00'5 0.7
2016-Dec-05 14:14N 40°46' W 073°56'710.9
2016-Dec-05 13:34N 40°40' W 074°02'8 7.9
2016-Dec-05 12:33N 40°32' W 074°02'7 7.0
2016-Dec-05 11:34N 40°39' W 074°02'1514.5
2016-Dec-05 10:33N 40°25' W 073°60'0 0.0
2016-Dec-05 09:33N 40°25' W 073°60'0 0.0
2016-Dec-04 13:16N 40°25' W 074°00'0 0.0
2016-Dec-03 00:33N 40°25' W 074°00'2019.8
2016-Dec-02 23:33N 40°44' W 073°58'1919.2
2016-Dec-02 22:33N 40°25' W 074°02'1717.3
2016-Dec-02 21:33N 40°42' W 073°60'5 0.7
2016-Dec-02 15:12N 40°46' W 073°57'2 3.2
2016-Dec-02 14:33N 40°45' W 073°58'5 5.1
2016-Dec-02 13:34N 40°40' W 074°02'7 7.0
2016-Dec-02 12:29N 40°33' W 074°02'7 7.7
2016-Dec-02 11:34N 40°40' W 074°01'15 1.4
2016-Dec-02 00:33N 40°25' W 073°60'1919.1
2016-Dec-01 23:34N 40°44' W 073°58'1918.7
2016-Dec-01 22:34N 40°25' W 074°02'1717.1
2016-Dec-01 21:33N 40°42' W 074°00'5 0.7
2016-Dec-01 14:16N 40°46' W 073°57'811.2
2016-Dec-01 13:34N 40°40' W 074°02'7 7.0
2016-Dec-01 12:32N 40°32' W 074°02'7 7.2
2016-Dec-01 11:33N 40°40' W 074°02'14 1.4
2016-Dec-01 01:33N 40°25' W 074°02'1918.9
2016-Dec-01 00:34N 40°44' W 073°58'1811.9
2016-Nov-30 23:04N 40°26' W 074°02'1530.0
2016-Nov-30 22:33N 40°41' W 074°01'1 0.9
2016-Nov-30 21:33N 40°41' W 074°02'1514.2
2016-Nov-30 20:31N 40°26' W 074°01'1818.8
2016-Nov-30 19:33N 40°45' W 073°58'0 0.0
2016-Nov-30 18:33N 40°45' W 073°58'0 0.0
2016-Nov-30 17:33N 40°45' W 073°58'0 0.0
2016-Nov-30 16:33N 40°45' W 073°58'0 0.0
2016-Nov-30 15:33N 40°45' W 073°58'0 0.1
2016-Nov-30 14:33N 40°45' W 073°58'5 5.0
2016-Nov-30 13:34N 40°40' W 074°02'7 6.7
2016-Nov-30 12:28N 40°33' W 074°02'7 8.2
2016-Nov-30 11:33N 40°40' W 074°01'16 1.4
2016-Nov-30 00:27N 40°25' W 073°60'1921.8
2016-Nov-29 23:34N 40°44' W 073°58'1917.5
2016-Nov-29 22:29N 40°25' W 074°01'1718.4
2016-Nov-29 21:34N 40°42' W 073°59'5 0.7
2016-Nov-29 14:17N 40°47' W 073°57'811.3
2016-Nov-29 13:34N 40°40' W 074°02'8 7.4
2016-Nov-29 12:32N 40°32' W 074°02'8 8.7
2016-Nov-29 11:34N 40°40' W 074°01'16 1.4
2016-Nov-29 00:28N 40°25' W 073°60'1921.1
2016-Nov-28 23:34N 40°44' W 073°58'1918.6
2016-Nov-28 22:33N 40°25' W 074°02'1717.5
2016-Nov-28 21:34N 40°42' W 073°60'5 0.6
2016-Nov-28 14:16N 40°46' W 073°57'811.7
2016-Nov-28 13:34N 40°39' W 074°02'6 6.0
2016-Nov-28 12:30N 40°33' W 074°02'7 7.0
2016-Nov-28 11:33N 40°39' W 074°02'1413.9
2016-Nov-28 10:32N 40°25' W 074°02'  
Track history (hours):
 
Tides and Currents Weather Stations Pressure Air Temp Water Temp Dewpoint Dewpoint Depression Visibility Wind Speed Wind Dir Waves Ship Positions

Seastreak Highlands

Owner: Seastreak llc, atlantic highlands, NJ. More information available from US FCC via Universal Licensing System and Coast Guard Vessel Documentation Center.

Last reported at 2016-Dec-07 14:20 UTC. Time now 2016-Dec-07 16:26 UTC.
Position N 40°47' W 073°56'.

Length 44 m.

Type: High speed craft. MMSI: 367347670.

Date/timePositionNaut miles runAvg speedWind from/ knotsBaromVisibWave heightAir tempDewpointWater temp
2016-Dec-07 14:20N 40°47' W 073°56'911.7
2016-Dec-07 13:34N 40°39' W 074°02'7 7.0
2016-Dec-07 12:32N 40°31' W 074°02'7 7.5
2016-Dec-07 11:34N 40°39' W 074°02'13 1.2
2016-Dec-07 00:33N 40°25' W 074°00'1918.9
2016-Dec-06 23:33N 40°44' W 073°58'1918.9
2016-Dec-06 22:33N 40°25' W 074°02'1717.2
2016-Dec-06 21:34N 40°42' W 074°00'5 0.7
2016-Dec-06 14:19N 40°46' W 073°57'911.5
2016-Dec-06 13:34N 40°39' W 074°02'5 4.2
2016-Dec-06 12:29N 40°34' W 074°02'5 5.1
2016-Dec-06 11:34N 40°39' W 074°02'14 1.2
2016-Dec-06 00:33N 40°25' W 074°00'1918.8
2016-Dec-05 23:34N 40°44' W 073°58'1918.4
2016-Dec-05 22:32N 40°25' W 074°02'1717.5
2016-Dec-05 21:34N 40°42' W 074°00'5 0.7
2016-Dec-05 14:14N 40°46' W 073°56'710.9
2016-Dec-05 13:34N 40°40' W 074°02'8 7.9
2016-Dec-05 12:33N 40°32' W 074°02'7 7.0
2016-Dec-05 11:34N 40°39' W 074°02'1514.5
2016-Dec-05 10:33N 40°25' W 073°60'0 0.0
2016-Dec-05 09:33N 40°25' W 073°60'0 0.0
2016-Dec-04 13:16N 40°25' W 074°00'0 0.0
2016-Dec-03 00:33N 40°25' W 074°00'2019.8
2016-Dec-02 23:33N 40°44' W 073°58'1919.2
2016-Dec-02 22:33N 40°25' W 074°02'1717.3
2016-Dec-02 21:33N 40°42' W 073°60'5 0.7
2016-Dec-02 15:12N 40°46' W 073°57'2 3.2
2016-Dec-02 14:33N 40°45' W 073°58'5 5.1
2016-Dec-02 13:34N 40°40' W 074°02'7 7.0
2016-Dec-02 12:29N 40°33' W 074°02'7 7.7
2016-Dec-02 11:34N 40°40' W 074°01'15 1.4
2016-Dec-02 00:33N 40°25' W 073°60'1919.1
2016-Dec-01 23:34N 40°44' W 073°58'1918.7
2016-Dec-01 22:34N 40°25' W 074°02'1717.1
2016-Dec-01 21:33N 40°42' W 074°00'5 0.7
2016-Dec-01 14:16N 40°46' W 073°57'811.2
2016-Dec-01 13:34N 40°40' W 074°02'7 7.0
2016-Dec-01 12:32N 40°32' W 074°02'7 7.2
2016-Dec-01 11:33N 40°40' W 074°02'14 1.4
2016-Dec-01 01:33N 40°25' W 074°02'1918.9
2016-Dec-01 00:34N 40°44' W 073°58'1811.9
2016-Nov-30 23:04N 40°26' W 074°02'1530.0
2016-Nov-30 22:33N 40°41' W 074°01'1 0.9
2016-Nov-30 21:33N 40°41' W 074°02'1514.2
2016-Nov-30 20:31N 40°26' W 074°01'1818.8
2016-Nov-30 19:33N 40°45' W 073°58'0 0.0
2016-Nov-30 18:33N 40°45' W 073°58'0 0.0
2016-Nov-30 17:33N 40°45' W 073°58'0 0.0
2016-Nov-30 16:33N 40°45' W 073°58'0 0.0
2016-Nov-30 15:33N 40°45' W 073°58'0 0.1
2016-Nov-30 14:33N 40°45' W 073°58'5 5.0
2016-Nov-30 13:34N 40°40' W 074°02'7 6.7
2016-Nov-30 12:28N 40°33' W 074°02'7 8.2
2016-Nov-30 11:33N 40°40' W 074°01'16 1.4
2016-Nov-30 00:27N 40°25' W 073°60'1921.8
2016-Nov-29 23:34N 40°44' W 073°58'1917.5
2016-Nov-29 22:29N 40°25' W 074°01'1718.4
2016-Nov-29 21:34N 40°42' W 073°59'5 0.7
2016-Nov-29 14:17N 40°47' W 073°57'811.3
2016-Nov-29 13:34N 40°40' W 074°02'8 7.4
2016-Nov-29 12:32N 40°32' W 074°02'8 8.7
2016-Nov-29 11:34N 40°40' W 074°01'16 1.4
2016-Nov-29 00:28N 40°25' W 073°60'1921.1
2016-Nov-28 23:34N 40°44' W 073°58'1918.6
2016-Nov-28 22:33N 40°25' W 074°02'1717.5
2016-Nov-28 21:34N 40°42' W 073°60'5 0.6
2016-Nov-28 14:16N 40°46' W 073°57'811.7
2016-Nov-28 13:34N 40°39' W 074°02'6 6.0
2016-Nov-28 12:30N 40°33' W 074°02'7 7.0
2016-Nov-28 11:33N 40°39' W 074°02'1413.9
2016-Nov-28 10:32N 40°25' W 074°02'  

Dump ship's entire track history